createdAt,value
2022-11-13T00:01:43.647Z,23.8
2022-11-13T00:07:09.097Z,23.9
2022-11-13T00:12:31.198Z,24.1
2022-11-13T00:17:58.517Z,24.4
2022-11-13T00:23:36.825Z,24.7
2022-11-13T00:28:44.234Z,25.5
2022-11-13T00:35:19.105Z,25
2022-11-13T00:40:47.276Z,23.6
2022-11-13T00:46:08.856Z,23.5
2022-11-13T00:51:32.088Z,23.6
2022-11-13T00:56:39.464Z,23.6
2022-11-13T01:01:47.051Z,23.7
2022-11-13T01:07:10.232Z,23.7
2022-11-13T01:12:34.543Z,23.8
2022-11-13T01:17:40.532Z,23.8
2022-11-13T01:23:03.678Z,23.8
2022-11-13T01:28:10.459Z,23.9
2022-11-13T01:33:33.168Z,24
2022-11-13T01:39:12.110Z,24.1
2022-11-13T01:44:33.817Z,24.2
2022-11-13T01:49:56.157Z,24.3
2022-11-13T01:55:18.931Z,24.3
2022-11-13T02:00:57.231Z,24.3
2022-11-13T02:06:35.314Z,24.3
2022-11-13T02:12:14.007Z,24.3
2022-11-13T02:17:36.955Z,24.3
2022-11-13T02:23:14.593Z,24.3
2022-11-13T02:28:39.674Z,24.3
2022-11-13T02:34:06.814Z,24.3
2022-11-13T02:39:13.107Z,24.3
2022-11-13T02:44:35.189Z,24.3
2022-11-13T02:49:57.183Z,24.2
2022-11-13T02:55:40.439Z,24.1
2022-11-13T03:01:21.274Z,24.1
2022-11-13T03:07:45.390Z,24
2022-11-13T03:13:08.193Z,23.9
2022-11-13T03:18:30.452Z,23.9
2022-11-13T03:23:53.095Z,23.8
2022-11-13T03:29:20.625Z,23.7
2022-11-13T03:34:12.310Z,23.6
2022-11-13T03:39:40.358Z,23.5
2022-11-13T03:45:18.473Z,23.4
2022-11-13T03:51:01.811Z,23.3
2022-11-13T03:56:39.989Z,23.3
2022-11-13T04:02:24.171Z,23.1
2022-11-13T04:08:04.372Z,23
2022-11-13T04:13:26.645Z,22.9
2022-11-13T04:19:05.122Z,22.8
2022-11-13T04:24:41.937Z,22.6
2022-11-13T04:30:19.219Z,22.5
2022-11-13T04:35:57.470Z,22.4
2022-11-13T04:41:35.456Z,22.3
2022-11-13T04:47:00.245Z,22.2
2022-11-13T04:52:38.896Z,22.1
2022-11-13T04:58:21.341Z,22
2022-11-13T05:03:59.290Z,21.9
2022-11-13T05:09:22.494Z,21.8
2022-11-13T05:14:46.971Z,21.6
2022-11-13T05:20:24.579Z,21.6
2022-11-13T05:26:03.323Z,21.4
2022-11-13T05:31:44.557Z,21.3
2022-11-13T05:37:24.968Z,21.2
2022-11-13T05:42:47.644Z,21.1
2022-11-13T05:48:27.340Z,20.9
2022-11-13T05:54:04.985Z,20.8
2022-11-13T05:59:43.239Z,20.7
2022-11-13T06:05:23.773Z,20.6
2022-11-13T06:11:01.145Z,20.4
2022-11-13T06:16:39.825Z,20.3
2022-11-13T06:22:19.827Z,20.2
2022-11-13T06:27:42.213Z,20.1
2022-11-13T06:33:20.715Z,19.9
2022-11-13T06:38:45.054Z,19.9
2022-11-13T06:44:07.751Z,19.8
2022-11-13T06:49:30.811Z,19.6
2022-11-13T06:54:59.570Z,19.5
2022-11-13T07:00:22.726Z,19.4
2022-11-13T07:05:47.038Z,19.3
2022-11-13T07:11:25.748Z,19.2
2022-11-13T07:17:21.870Z,19.1
2022-11-13T07:23:05.595Z,18.9
2022-11-13T07:28:29.069Z,18.9
2022-11-13T07:34:12.498Z,18.8
2022-11-13T07:45:10.022Z,18.6
2022-11-13T07:50:40.333Z,18.5
2022-11-13T07:56:03.440Z,18.4
2022-11-13T08:01:30.600Z,18.3
2022-11-13T08:06:53.690Z,18.3
2022-11-13T08:12:03.303Z,18.1
2022-11-13T08:16:55.991Z,18.1
2022-11-13T08:22:06.361Z,18
2022-11-13T08:27:13.953Z,17.9
2022-11-13T08:32:41.829Z,17.9
2022-11-13T08:38:23.124Z,17.8
2022-11-13T08:44:00.955Z,17.7
2022-11-13T08:49:43.876Z,17.7
2022-11-13T08:55:06.773Z,17.6
2022-11-13T09:00:49.824Z,17.6
2022-11-13T09:06:27.961Z,17.5
2022-11-13T09:12:10.806Z,17.5
2022-11-13T09:17:55.315Z,17.4
2022-11-13T09:23:26.795Z,17.4
2022-11-13T09:28:55.199Z,17.3
2022-11-13T09:34:22.735Z,17.3
2022-11-13T09:39:52.469Z,17.3
2022-11-13T09:45:21.666Z,17.2
2022-11-13T09:50:29.395Z,17.2
2022-11-13T09:55:57.349Z,17.1
2022-11-13T10:01:35.897Z,17.1
2022-11-13T10:07:34.665Z,17.1
2022-11-13T10:13:13.283Z,17.1
2022-11-13T10:41:10.379Z,16.9
2022-11-13T10:52:47.134Z,16.9
2022-11-13T10:57:56.449Z,16.9
2022-11-13T11:03:36.454Z,16.9
2022-11-13T11:09:34.623Z,16.9
2022-11-13T11:15:18.250Z,16.9
2022-11-13T11:20:56.762Z,16.9
2022-11-13T11:26:36.979Z,16.8
2022-11-13T11:32:14.825Z,16.8
2022-11-13T11:37:52.732Z,16.8
2022-11-13T11:43:15.403Z,16.8
2022-11-13T11:48:45.615Z,16.8
2022-11-13T11:54:23.117Z,16.8
2022-11-13T12:00:01.233Z,16.8
2022-11-13T12:05:39.703Z,16.7
2022-11-13T12:11:03.211Z,16.8
2022-11-13T12:16:25.401Z,16.7
2022-11-13T12:22:04.276Z,16.7
2022-11-13T12:27:42.296Z,16.7
2022-11-13T12:33:23.720Z,16.7
2022-11-13T12:39:06.643Z,16.7
2022-11-13T12:44:47.369Z,16.7
2022-11-13T12:50:10.781Z,16.7
2022-11-13T12:55:39.011Z,16.6
2022-11-13T13:01:21.773Z,16.6
2022-11-13T13:07:00.355Z,16.6
2022-11-13T13:12:39.005Z,16.6
2022-11-13T13:18:06.759Z,16.6
2022-11-13T13:22:59.040Z,16.6
2022-11-13T13:28:06.203Z,16.6
2022-11-13T13:33:34.984Z,16.6
2022-11-13T13:38:48.036Z,16.6
2022-11-13T13:43:58.350Z,16.6
2022-11-13T13:49:37.575Z,16.6
2022-11-13T13:54:51.689Z,16.7
2022-11-13T14:00:19.607Z,16.7
2022-11-13T14:06:05.068Z,16.7
2022-11-13T14:11:43.845Z,16.7
2022-11-13T14:17:22.098Z,16.7
2022-11-13T14:23:00.277Z,16.7
2022-11-13T14:28:22.881Z,16.7
2022-11-13T14:34:05.062Z,16.7
2022-11-13T14:39:43.456Z,16.7
2022-11-13T14:45:23.150Z,16.7
2022-11-13T14:51:01.905Z,16.7
2022-11-13T14:56:55.378Z,16.7
2022-11-13T15:02:23.475Z,16.7
2022-11-13T15:07:16.755Z,16.7
2022-11-13T15:12:08.938Z,16.7
2022-11-13T15:16:59.868Z,16.8
2022-11-13T15:22:43.222Z,16.8
2022-11-13T15:28:08.783Z,16.9
2022-11-13T15:38:21.565Z,17.1
2022-11-13T15:43:36.410Z,17.4
2022-11-13T15:49:05.056Z,28.4
2022-11-13T15:55:03.364Z,33.3
2022-11-13T16:00:31.411Z,36
2022-11-13T16:06:18.363Z,38.2
2022-11-13T16:11:25.844Z,38.9
2022-11-13T16:17:11.077Z,39.8
2022-11-13T16:22:37.787Z,39.5
2022-11-13T16:28:17.091Z,39.1
2022-11-13T16:34:11.961Z,42.4
2022-11-13T16:39:33.695Z,45
2022-11-13T16:45:17.614Z,46.6
2022-11-13T16:50:57.551Z,46.6
2022-11-13T16:56:35.397Z,44.9
2022-11-13T17:02:06.109Z,44.5
2022-11-13T17:07:48.709Z,43.6
2022-11-13T17:13:52.342Z,42.7
2022-11-13T17:19:15.432Z,42.1
2022-11-13T17:24:54.874Z,43.3
2022-11-13T17:30:32.982Z,42.7
2022-11-13T17:35:55.264Z,40.1
2022-11-13T17:41:35.726Z,40.1
2022-11-13T17:46:48.578Z,42.9
2022-11-13T17:52:18.112Z,41.9
2022-11-13T17:58:00.285Z,44.1
2022-11-13T18:03:22.481Z,43.7
2022-11-13T18:08:50.128Z,42.4
2022-11-13T18:14:13.708Z,42.9
2022-11-13T18:19:54.722Z,42.8
2022-11-13T18:25:55.068Z,44.3
2022-11-13T18:31:34.453Z,44
2022-11-13T18:37:12.479Z,42.4
2022-11-13T18:42:53.269Z,40.9
2022-11-13T18:48:33.176Z,40
2022-11-13T18:53:55.247Z,39.6
2022-11-13T18:59:33.692Z,40.9
2022-11-13T19:05:45.014Z,40.5
2022-11-13T19:11:27.243Z,39.9
2022-11-13T19:16:50.460Z,40.6
2022-11-13T19:22:34.218Z,39.4
2022-11-13T19:28:13.987Z,37.3
2022-11-13T19:33:36.335Z,38.8
2022-11-13T19:39:17.438Z,36.3
2022-11-13T19:44:55.784Z,35.9
2022-11-13T19:50:18.563Z,36
2022-11-13T19:55:57.283Z,34.9
2022-11-13T20:01:23.305Z,33.3
2022-11-13T20:06:46.865Z,32.1
2022-11-13T20:12:10.560Z,31.2
2022-11-13T20:17:31.712Z,30.5
2022-11-13T20:23:11.034Z,29.9
2022-11-13T20:28:38.047Z,29.1
2022-11-13T20:34:15.593Z,28.4
2022-11-13T20:39:58.990Z,27.9
2022-11-13T20:45:37.672Z,34.6
2022-11-13T20:51:16.108Z,38.9
2022-11-13T20:56:42.060Z,39.6
2022-11-13T21:02:25.982Z,39
2022-11-13T21:08:07.818Z,37.8
2022-11-13T21:13:45.876Z,37
2022-11-13T21:19:24.568Z,36.5
2022-11-13T21:25:02.431Z,35.9
2022-11-13T21:30:46.553Z,37
2022-11-13T21:36:30.231Z,36.1
2022-11-13T21:42:08.331Z,38.1
2022-11-13T21:47:46.346Z,34.6
2022-11-13T21:53:24.700Z,34.9
2022-11-13T21:59:03.301Z,34.3
2022-11-13T22:04:43.811Z,32.9
2022-11-13T22:10:25.129Z,31.4
2022-11-13T22:16:01.920Z,30.1
2022-11-13T22:21:44.013Z,29.3
2022-11-13T22:27:22.681Z,28.4
2022-11-13T22:33:00.357Z,27.8
2022-11-13T22:38:37.933Z,27.3
2022-11-13T22:44:16.284Z,27
2022-11-13T22:50:28.993Z,26.6
2022-11-13T22:56:06.996Z,26.2
2022-11-13T23:01:29.948Z,25.8
2022-11-13T23:06:58.481Z,25.5
2022-11-13T23:12:37.925Z,25.3
2022-11-13T23:17:45.502Z,25
2022-11-13T23:23:29.229Z,24.3
2022-11-13T23:28:51.606Z,24
2022-11-13T23:34:59.433Z,23.9
2022-11-13T23:40:37.176Z,24
2022-11-13T23:46:56.461Z,24.2
2022-11-13T23:52:34.657Z,24.3
2022-11-13T23:58:12.637Z,24.6
